aviador You're here:

LEIB Decoded Metar

IBIZA in SPAIN
Report Time2018-06-18 05:30:00
UTC Time2018-06-18 05:43:43
Flight Rules vfr VFR
Wind010° at 03 kt
W.Decomp.*RWY 06: 1.9 kt HW 2.3 kt LCW
W.Rank010° ranks 18
Current wind is below 010° avg. (6.2)
Visibility9999 m
Phenomena:N/A
Clouds:N/A
Expected CloudBase > 1,200 ft AGL from Temp-Dew spread
CeilingNone
Temp19°C (ISA +4)
Dew Point16°C (83% RH)
QNH1020 hPa
Density Alt522 ft
Elevation39 ft
Report Wrong Elevation
Raw Report
LEIB 180530Z 01003KT 330V030 CAVOK 19/16 Q1020 NOSIG=

Extra information for LEIB:More info

Metar Taf Metar & Taf Last 4 Metars F.Rules Stats Wind Profile Meteogram Temp Stats Airport Information Weather charts Add Link Nearby VenuesMetar ALERT Operation Metar Decoded Social comments